createdAt,value
2023-06-24T00:02:18.522Z,20.82
2023-06-24T00:04:44.956Z,20.77
2023-06-24T00:07:11.505Z,20.79
2023-06-24T00:09:38.490Z,20.74
2023-06-24T00:12:05.346Z,20.71
2023-06-24T00:14:31.801Z,20.71
2023-06-24T00:16:58.282Z,20.70
2023-06-24T00:19:26.712Z,20.59
2023-06-24T00:21:54.064Z,20.53
2023-06-24T00:24:22.427Z,20.47
2023-06-24T00:26:48.846Z,20.43
2023-06-24T00:29:16.141Z,20.46
2023-06-24T00:31:42.648Z,20.48
2023-06-24T00:34:09.206Z,20.46
2023-06-24T00:36:37.070Z,20.43
2023-06-24T00:39:04.683Z,20.33
2023-06-24T00:41:31.710Z,20.28
2023-06-24T00:43:58.688Z,20.19
2023-06-24T00:46:26.428Z,20.14
2023-06-24T00:48:54.671Z,20.14
2023-06-24T00:51:22.200Z,20.12
2023-06-24T00:53:51.895Z,20.16
2023-06-24T00:56:20.066Z,20.15
2023-06-24T00:58:49.951Z,20.04
2023-06-24T01:01:18.441Z,20.02
2023-06-24T01:03:45.040Z,19.98
2023-06-24T01:06:11.600Z,19.96
2023-06-24T01:08:38.576Z,19.99
2023-06-24T01:11:05.078Z,20.03
2023-06-24T01:13:31.878Z,20.06
2023-06-24T01:16:01.727Z,19.98
2023-06-24T01:18:36.361Z,19.98
2023-06-24T01:21:31.205Z,19.86
2023-06-24T01:24:09.732Z,19.93
2023-06-24T01:27:20.684Z,19.94
2023-06-24T01:29:55.167Z,19.94
2023-06-24T01:32:28.936Z,19.94
2023-06-24T01:35:01.137Z,19.90
2023-06-24T01:37:39.498Z,19.92
2023-06-24T01:40:11.332Z,19.86
2023-06-24T01:42:43.293Z,19.71
2023-06-24T01:45:43.357Z,19.76
2023-06-24T01:48:15.870Z,19.68
2023-06-24T01:50:52.354Z,19.73
2023-06-24T01:53:20.274Z,19.69
2023-06-24T01:55:47.305Z,19.76
2023-06-24T01:58:15.507Z,19.71
2023-06-24T02:00:42.753Z,19.73
2023-06-24T02:03:09.851Z,19.73
2023-06-24T02:05:37.972Z,19.69
2023-06-24T02:08:05.153Z,19.69
2023-06-24T02:10:32.067Z,19.67
2023-06-24T02:13:00.207Z,19.59
2023-06-24T02:15:27.600Z,19.63
2023-06-24T02:17:57.790Z,19.60
2023-06-24T02:20:28.089Z,19.58
2023-06-24T02:22:55.508Z,19.55
2023-06-24T02:25:22.261Z,19.54
2023-06-24T02:27:49.056Z,19.51
2023-06-24T02:30:16.213Z,19.50
2023-06-24T02:32:42.762Z,19.49
2023-06-24T02:35:09.608Z,19.48
2023-06-24T02:37:36.109Z,19.46
2023-06-24T02:40:04.390Z,19.41
2023-06-24T02:42:30.919Z,19.34
2023-06-24T02:44:57.648Z,19.30
2023-06-24T02:47:24.947Z,19.26
2023-06-24T02:49:52.321Z,19.26
2023-06-24T02:52:18.929Z,19.22
2023-06-24T02:54:45.635Z,19.20
2023-06-24T02:57:13.922Z,19.18
2023-06-24T02:59:40.420Z,19.21
2023-06-24T03:02:07.421Z,19.22
2023-06-24T03:04:34.448Z,19.16
2023-06-24T03:07:01.126Z,19.08
2023-06-24T03:09:28.383Z,19.03
2023-06-24T03:11:54.939Z,18.99
2023-06-24T03:14:21.439Z,18.96
2023-06-24T03:16:47.966Z,18.94
2023-06-24T03:19:14.574Z,18.90
2023-06-24T03:21:41.299Z,18.95
2023-06-24T03:24:07.840Z,18.91
2023-06-24T03:26:39.497Z,18.92
2023-06-24T03:29:06.722Z,18.95
2023-06-24T03:31:33.270Z,18.92
2023-06-24T03:33:59.784Z,18.91
2023-06-24T03:36:26.371Z,18.89
2023-06-24T03:38:52.878Z,18.84
2023-06-24T03:41:19.327Z,18.87
2023-06-24T03:43:46.209Z,18.87
2023-06-24T03:46:12.905Z,18.87
2023-06-24T03:48:39.819Z,18.85
2023-06-24T03:51:06.354Z,18.83
2023-06-24T03:53:34.100Z,18.85
2023-06-24T03:56:02.225Z,18.82
2023-06-24T03:58:28.857Z,18.86
2023-06-24T04:00:57.736Z,18.89
2023-06-24T04:03:26.861Z,18.92
2023-06-24T04:05:55.561Z,18.94
2023-06-24T04:08:22.660Z,18.92
2023-06-24T04:10:49.188Z,18.91
2023-06-24T04:13:15.689Z,18.96
2023-06-24T04:15:42.182Z,18.97
2023-06-24T04:18:09.221Z,18.98
2023-06-24T04:20:38.108Z,19.02
2023-06-24T04:23:06.795Z,19.09
2023-06-24T04:25:33.476Z,19.14
2023-06-24T04:28:00.118Z,19.17
2023-06-24T04:30:26.598Z,19.27
2023-06-24T04:32:53.127Z,19.34
2023-06-24T04:35:19.628Z,19.41
2023-06-24T04:37:46.058Z,19.50
2023-06-24T04:40:13.318Z,19.56
2023-06-24T04:42:39.860Z,19.63
2023-06-24T04:45:06.846Z,19.69
2023-06-24T04:47:33.385Z,19.73
2023-06-24T04:49:59.871Z,19.83
2023-06-24T04:52:26.342Z,19.90
2023-06-24T04:54:52.797Z,19.92
2023-06-24T04:57:30.762Z,19.96
2023-06-24T04:59:58.328Z,20.05
2023-06-24T05:02:25.237Z,20.08
2023-06-24T05:04:52.880Z,20.05
2023-06-24T05:07:19.935Z,20.14
2023-06-24T05:09:48.379Z,20.15
2023-06-24T05:12:14.907Z,20.19
2023-06-24T05:14:41.400Z,20.22
2023-06-24T05:17:07.852Z,20.26
2023-06-24T05:19:34.344Z,20.29
2023-06-24T05:22:00.869Z,20.36
2023-06-24T05:24:27.320Z,20.39
2023-06-24T05:26:54.091Z,20.34
2023-06-24T05:29:20.556Z,20.41
2023-06-24T05:31:47.600Z,20.44
2023-06-24T05:34:14.057Z,20.43
2023-06-24T05:36:40.710Z,20.45
2023-06-24T05:39:09.055Z,20.43
2023-06-24T05:41:36.576Z,20.48
2023-06-24T05:44:04.386Z,20.48
2023-06-24T05:46:31.246Z,20.46
2023-06-24T05:48:57.826Z,20.52
2023-06-24T05:51:24.494Z,20.55
2023-06-24T05:53:50.996Z,20.59
2023-06-24T05:56:17.482Z,20.64
2023-06-24T05:58:43.902Z,20.75
2023-06-24T06:01:10.939Z,20.93
2023-06-24T06:03:37.484Z,21.01
2023-06-24T06:06:04.389Z,21.12
2023-06-24T06:08:30.935Z,21.20
2023-06-24T06:10:57.479Z,21.32
2023-06-24T06:13:23.937Z,21.43
2023-06-24T06:15:50.341Z,21.47
2023-06-24T06:18:16.926Z,21.54
2023-06-24T06:20:43.424Z,21.58
2023-06-24T06:23:09.854Z,21.61
2023-06-24T06:25:38.349Z,21.63
2023-06-24T06:28:05.320Z,21.63
2023-06-24T06:30:31.723Z,21.67
2023-06-24T06:32:58.271Z,21.69
2023-06-24T06:35:24.783Z,21.66
2023-06-24T06:37:57.036Z,21.70
2023-06-24T06:40:24.270Z,21.74
2023-06-24T06:42:51.303Z,21.75
2023-06-24T06:45:19.162Z,21.76
2023-06-24T06:47:46.000Z,21.76
2023-06-24T06:50:12.549Z,21.79
2023-06-24T06:52:39.862Z,21.82
2023-06-24T06:55:06.600Z,21.88
2023-06-24T06:57:33.108Z,21.91
2023-06-24T06:59:59.543Z,21.94
2023-06-24T07:02:26.205Z,21.94
2023-06-24T07:04:52.731Z,22.05
2023-06-24T07:07:19.355Z,22.09
2023-06-24T07:09:47.421Z,22.12
2023-06-24T07:12:14.479Z,22.21
2023-06-24T07:14:40.999Z,22.27
2023-06-24T07:17:08.615Z,22.35
2023-06-24T07:19:35.193Z,22.41
2023-06-24T07:22:01.679Z,22.45
2023-06-24T07:24:28.095Z,22.53
2023-06-24T07:26:54.567Z,22.61
2023-06-24T07:29:21.000Z,22.69
2023-06-24T07:31:47.501Z,22.75
2023-06-24T07:34:14.113Z,22.82
2023-06-24T07:36:40.596Z,22.87
2023-06-24T07:39:07.125Z,22.85
2023-06-24T07:41:33.841Z,23.00
2023-06-24T07:44:00.353Z,23.17
2023-06-24T07:46:28.939Z,23.26
2023-06-24T07:48:55.502Z,23.38
2023-06-24T07:51:22.033Z,23.47
2023-06-24T07:53:48.471Z,23.54
2023-06-24T07:56:15.052Z,23.65
2023-06-24T07:58:41.584Z,23.81
2023-06-24T08:01:08.083Z,23.93
2023-06-24T08:03:35.319Z,24.08
2023-06-24T08:06:01.985Z,24.34
2023-06-24T08:08:28.462Z,24.57
2023-06-24T08:10:55.001Z,24.76
2023-06-24T08:13:21.835Z,25.00
2023-06-24T08:15:48.275Z,25.29
2023-06-24T08:18:14.748Z,25.63
2023-06-24T08:20:41.157Z,26.06
2023-06-24T08:23:07.601Z,26.36
2023-06-24T08:25:34.702Z,26.48
2023-06-24T08:28:01.408Z,26.79
2023-06-24T08:30:28.241Z,26.98
2023-06-24T08:32:54.702Z,27.13
2023-06-24T08:35:21.245Z,27.20
2023-06-24T08:37:47.759Z,27.49
2023-06-24T08:40:14.253Z,27.85
2023-06-24T08:42:40.746Z,28.26
2023-06-24T08:45:07.716Z,28.66
2023-06-24T08:47:34.619Z,28.86
2023-06-24T08:50:13.000Z,29.01
2023-06-24T08:52:43.507Z,29.26
2023-06-24T08:55:11.683Z,29.31
2023-06-24T08:57:38.435Z,29.55
2023-06-24T09:00:05.941Z,29.64
2023-06-24T09:02:34.038Z,29.65
2023-06-24T09:05:00.572Z,29.45
2023-06-24T09:07:29.230Z,29.78
2023-06-24T09:09:56.252Z,29.87
2023-06-24T09:12:22.959Z,29.73
2023-06-24T09:14:51.048Z,29.75
2023-06-24T09:17:18.213Z,29.87
2023-06-24T09:19:44.859Z,29.58
2023-06-24T09:22:18.727Z,29.88
2023-06-24T09:24:49.486Z,30.26
2023-06-24T09:27:17.078Z,30.76
2023-06-24T09:29:44.576Z,30.85
2023-06-24T09:32:11.473Z,31.27
2023-06-24T09:34:38.522Z,31.53
2023-06-24T09:37:05.134Z,31.59
2023-06-24T09:39:37.197Z,31.58
2023-06-24T09:42:05.395Z,31.71
2023-06-24T09:44:32.802Z,32.08
2023-06-24T09:46:59.386Z,32.01
2023-06-24T09:49:25.984Z,31.99
2023-06-24T09:52:02.486Z,32.05
2023-06-24T09:54:33.551Z,32.20
2023-06-24T09:57:03.622Z,32.40
2023-06-24T09:59:31.284Z,32.72
2023-06-24T10:01:58.304Z,32.94
2023-06-24T10:04:25.871Z,32.95
2023-06-24T10:06:52.399Z,32.99
2023-06-24T10:09:20.468Z,33.07
2023-06-24T10:11:47.697Z,33.24
2023-06-24T10:14:15.766Z,33.20
2023-06-24T10:16:43.460Z,33.32
2023-06-24T10:19:10.037Z,33.46
2023-06-24T10:21:47.541Z,33.56
2023-06-24T10:24:14.087Z,33.36
2023-06-24T10:26:41.424Z,33.02
2023-06-24T10:29:07.824Z,33.05
2023-06-24T10:31:40.510Z,32.98
2023-06-24T10:34:31.905Z,32.91
2023-06-24T10:37:19.487Z,32.75
2023-06-24T10:39:49.920Z,32.66
2023-06-24T10:42:44.622Z,32.90
2023-06-24T10:45:10.993Z,32.78
2023-06-24T10:47:39.909Z,32.63
2023-06-24T10:50:07.446Z,32.68
2023-06-24T10:52:34.318Z,32.69
2023-06-24T10:55:00.840Z,32.52
2023-06-24T10:57:28.635Z,32.32
2023-06-24T10:59:57.144Z,31.95
2023-06-24T11:02:25.292Z,32.03
2023-06-24T11:04:52.567Z,32.25
2023-06-24T11:07:23.323Z,32.43
2023-06-24T11:09:57.511Z,32.44
2023-06-24T11:12:25.965Z,32.39
2023-06-24T11:14:52.759Z,32.27
2023-06-24T11:17:21.133Z,32.33
2023-06-24T11:19:47.668Z,32.40
2023-06-24T11:22:14.188Z,32.25
2023-06-24T11:24:40.785Z,31.76
2023-06-24T11:27:07.285Z,31.45
2023-06-24T11:29:34.807Z,31.52
2023-06-24T11:32:02.645Z,31.64
2023-06-24T11:34:29.662Z,31.91
2023-06-24T11:36:56.197Z,32.11
2023-06-24T11:39:28.056Z,32.25
2023-06-24T11:41:55.273Z,32.24
2023-06-24T11:44:22.143Z,31.68
2023-06-24T11:46:48.838Z,31.59
2023-06-24T11:49:15.757Z,31.69
2023-06-24T11:51:49.995Z,31.75
2023-06-24T11:54:21.948Z,31.90
2023-06-24T11:56:52.829Z,31.53
2023-06-24T11:59:20.568Z,31.21
2023-06-24T12:01:54.269Z,31.06
2023-06-24T12:04:21.556Z,31.20
2023-06-24T12:06:48.280Z,31.42
2023-06-24T12:09:14.843Z,31.67
2023-06-24T12:11:41.291Z,31.56
2023-06-24T12:14:07.780Z,31.71
2023-06-24T12:16:34.258Z,31.96
2023-06-24T12:19:00.752Z,32.02
2023-06-24T12:21:27.210Z,32.18
2023-06-24T12:23:53.658Z,32.38
2023-06-24T12:26:20.135Z,32.40
2023-06-24T12:28:46.574Z,32.57
2023-06-24T12:31:13.084Z,32.67
2023-06-24T12:33:39.668Z,32.48
2023-06-24T12:36:06.223Z,32.25
2023-06-24T12:38:32.746Z,32.31
2023-06-24T12:40:59.317Z,32.08
2023-06-24T12:43:25.789Z,32.08
2023-06-24T12:45:52.421Z,32.13
2023-06-24T12:48:19.080Z,32.16
2023-06-24T12:50:45.704Z,32.13
2023-06-24T12:53:14.246Z,32.19
2023-06-24T12:55:40.695Z,32.50
2023-06-24T12:58:08.072Z,32.74
2023-06-24T13:00:34.862Z,32.77
2023-06-24T13:03:01.609Z,32.72
2023-06-24T13:05:28.170Z,32.52
2023-06-24T13:07:54.654Z,32.35
2023-06-24T13:10:21.663Z,32.42
2023-06-24T13:12:49.464Z,32.52
2023-06-24T13:15:17.962Z,32.66
2023-06-24T13:17:44.435Z,32.74
2023-06-24T13:20:11.555Z,32.55
2023-06-24T13:22:38.127Z,32.55
2023-06-24T13:25:05.473Z,32.63
2023-06-24T13:27:31.957Z,32.69
2023-06-24T13:29:58.528Z,32.89
2023-06-24T13:32:25.125Z,32.98
2023-06-24T13:34:51.622Z,32.94
2023-06-24T13:37:18.233Z,32.84
2023-06-24T13:39:45.209Z,32.87
2023-06-24T13:42:11.802Z,32.88
2023-06-24T13:44:38.787Z,32.81
2023-06-24T13:47:05.605Z,32.83
2023-06-24T13:49:32.075Z,32.94
2023-06-24T13:51:58.498Z,33.03
2023-06-24T13:54:25.737Z,32.90
2023-06-24T13:56:52.261Z,32.77
2023-06-24T13:59:18.771Z,32.72
2023-06-24T14:01:45.355Z,32.76
2023-06-24T14:04:11.913Z,32.82
2023-06-24T14:06:38.487Z,32.71
2023-06-24T14:09:04.993Z,32.52
2023-06-24T14:11:31.429Z,32.44
2023-06-24T14:13:57.944Z,32.45
2023-06-24T14:16:24.387Z,32.47
2023-06-24T14:18:50.971Z,32.45
2023-06-24T14:21:17.510Z,32.52
2023-06-24T14:23:44.047Z,32.47
2023-06-24T14:26:10.489Z,32.39
2023-06-24T14:28:37.040Z,32.26
2023-06-24T14:31:03.545Z,32.17
2023-06-24T14:33:30.027Z,32.22
2023-06-24T14:35:56.658Z,32.26
2023-06-24T14:38:23.194Z,32.26
2023-06-24T14:40:49.792Z,32.22
2023-06-24T14:43:16.395Z,32.13
2023-06-24T14:45:43.060Z,32.20
2023-06-24T14:48:09.666Z,32.20
2023-06-24T14:50:36.528Z,32.20
2023-06-24T14:53:03.963Z,32.18
2023-06-24T14:55:30.592Z,32.23
2023-06-24T14:57:57.261Z,32.19
2023-06-24T15:00:23.787Z,32.16
2023-06-24T15:02:50.379Z,32.15
2023-06-24T15:05:17.012Z,32.09
2023-06-24T15:07:43.485Z,32.04
2023-06-24T15:10:10.147Z,32.05
2023-06-24T15:12:36.757Z,32.09
2023-06-24T15:15:03.328Z,32.03
2023-06-24T15:17:31.242Z,32.07
2023-06-24T15:19:57.814Z,32.09
2023-06-24T15:22:24.633Z,32.05
2023-06-24T15:24:51.249Z,31.99
2023-06-24T15:27:17.739Z,31.97
2023-06-24T15:29:44.249Z,31.97
2023-06-24T15:32:10.818Z,31.91
2023-06-24T15:34:37.499Z,31.82
2023-06-24T15:37:04.076Z,31.79
2023-06-24T15:39:31.111Z,31.72
2023-06-24T15:41:57.570Z,31.80
2023-06-24T15:44:24.087Z,31.83
2023-06-24T15:46:50.679Z,31.85
2023-06-24T15:49:17.261Z,31.89
2023-06-24T15:51:43.889Z,31.94
2023-06-24T15:54:10.445Z,31.86
2023-06-24T15:56:37.219Z,31.70
2023-06-24T15:59:03.903Z,31.65
2023-06-24T16:01:30.585Z,31.53
2023-06-24T16:03:57.099Z,31.43
2023-06-24T16:06:24.465Z,31.36
2023-06-24T16:08:51.770Z,31.31
2023-06-24T16:11:18.453Z,31.28
2023-06-24T16:13:44.968Z,31.23
2023-06-24T16:16:12.371Z,31.25
2023-06-24T16:18:38.966Z,31.23
2023-06-24T16:21:05.451Z,31.19
2023-06-24T16:23:31.907Z,31.19
2023-06-24T16:25:58.348Z,31.13
2023-06-24T16:28:24.858Z,31.03
2023-06-24T16:30:51.357Z,30.93
2023-06-24T16:33:18.312Z,30.94
2023-06-24T16:35:44.747Z,31.01
2023-06-24T16:38:11.198Z,30.99
2023-06-24T16:40:37.722Z,30.95
2023-06-24T16:43:04.255Z,30.92
2023-06-24T16:45:30.758Z,30.85
2023-06-24T16:47:57.266Z,30.92
2023-06-24T16:50:23.777Z,30.90
2023-06-24T16:52:50.204Z,30.81
2023-06-24T16:55:16.744Z,30.80
2023-06-24T16:57:43.237Z,30.69
2023-06-24T17:00:11.184Z,30.70
2023-06-24T17:02:37.772Z,30.67
2023-06-24T17:05:05.246Z,30.47
2023-06-24T17:07:31.749Z,30.42
2023-06-24T17:09:58.244Z,30.51
2023-06-24T17:12:24.748Z,30.61
2023-06-24T17:14:51.312Z,30.64
2023-06-24T17:17:17.819Z,30.58
2023-06-24T17:19:44.300Z,30.58
2023-06-24T17:22:10.776Z,30.63
2023-06-24T17:24:37.215Z,30.66
2023-06-24T17:27:03.748Z,30.54
2023-06-24T17:29:30.244Z,30.35
2023-06-24T17:31:56.685Z,30.20
2023-06-24T17:34:23.129Z,30.11
2023-06-24T17:36:49.741Z,30.07
2023-06-24T17:39:16.256Z,30.10
2023-06-24T17:41:42.684Z,30.10
2023-06-24T17:44:09.185Z,30.09
2023-06-24T17:46:35.770Z,29.95
2023-06-24T17:49:02.338Z,29.86
2023-06-24T17:51:31.413Z,29.76
2023-06-24T17:53:57.832Z,29.75
2023-06-24T17:56:25.692Z,29.57
2023-06-24T17:58:52.574Z,29.49
2023-06-24T18:01:19.312Z,29.42
2023-06-24T18:03:47.446Z,29.35
2023-06-24T18:06:14.029Z,29.16
2023-06-24T18:08:40.466Z,29.05
2023-06-24T18:11:06.912Z,28.97
2023-06-24T18:13:33.357Z,28.90
2023-06-24T18:16:00.202Z,28.86
2023-06-24T18:18:26.681Z,28.82
2023-06-24T18:20:53.097Z,28.73
2023-06-24T18:23:19.585Z,28.67
2023-06-24T18:25:46.072Z,28.64
2023-06-24T18:28:12.486Z,28.59
2023-06-24T18:30:39.033Z,28.60
2023-06-24T18:33:05.735Z,28.55
2023-06-24T18:35:32.271Z,28.53
2023-06-24T18:37:59.602Z,28.50
2023-06-24T18:40:27.136Z,28.45
2023-06-24T18:42:56.788Z,28.35
2023-06-24T18:45:23.569Z,28.29
2023-06-24T18:47:55.140Z,28.23
2023-06-24T18:50:21.692Z,28.21
2023-06-24T18:52:48.147Z,28.18
2023-06-24T18:55:14.644Z,28.08
2023-06-24T18:57:41.272Z,28.01
2023-06-24T19:00:08.330Z,27.92
2023-06-24T19:02:34.937Z,27.84
2023-06-24T19:05:01.440Z,27.73
2023-06-24T19:07:28.601Z,27.61
2023-06-24T19:09:55.098Z,27.40
2023-06-24T19:12:21.647Z,27.27
2023-06-24T19:14:48.240Z,27.15
2023-06-24T19:17:14.668Z,27.18
2023-06-24T19:19:41.129Z,27.19
2023-06-24T19:22:09.087Z,27.15
2023-06-24T19:24:37.205Z,27.15
2023-06-24T19:27:04.086Z,27.10
2023-06-24T19:29:30.594Z,27.07
2023-06-24T19:31:57.181Z,27.03
2023-06-24T19:34:23.759Z,26.95
2023-06-24T19:36:50.231Z,26.85
2023-06-24T19:39:18.037Z,26.79
2023-06-24T19:41:44.481Z,26.76
2023-06-24T19:44:10.982Z,26.69
2023-06-24T19:46:41.847Z,26.65
2023-06-24T19:49:09.051Z,26.53
2023-06-24T19:51:35.610Z,26.49
2023-06-24T19:54:02.041Z,26.44
2023-06-24T19:56:28.502Z,26.41
2023-06-24T19:58:55.581Z,26.36
2023-06-24T20:01:22.095Z,26.32
2023-06-24T20:03:48.603Z,26.25
2023-06-24T20:06:15.023Z,26.20
2023-06-24T20:08:41.523Z,26.16
2023-06-24T20:11:08.137Z,26.12
2023-06-24T20:13:34.558Z,26.04
2023-06-24T20:16:01.043Z,26.06
2023-06-24T20:18:27.850Z,25.97
2023-06-24T20:20:54.332Z,25.98
2023-06-24T20:23:20.776Z,25.91
2023-06-24T20:25:47.582Z,25.84
2023-06-24T20:28:14.162Z,25.81
2023-06-24T20:30:40.656Z,25.76
2023-06-24T20:33:07.202Z,25.69
2023-06-24T20:35:33.861Z,25.67
2023-06-24T20:38:00.334Z,25.63
2023-06-24T20:40:26.900Z,25.60
2023-06-24T20:42:53.395Z,25.57
2023-06-24T20:45:20.795Z,25.47
2023-06-24T20:47:47.292Z,25.46
2023-06-24T20:50:13.798Z,25.39
2023-06-24T20:52:40.400Z,25.34
2023-06-24T20:55:07.252Z,25.28
2023-06-24T20:57:33.895Z,25.22
2023-06-24T21:00:00.435Z,25.18
2023-06-24T21:02:26.969Z,25.15
2023-06-24T21:04:53.637Z,25.09
2023-06-24T21:07:20.167Z,25.06
2023-06-24T21:09:46.729Z,25.01
2023-06-24T21:12:13.236Z,24.89
2023-06-24T21:14:39.777Z,24.85
2023-06-24T21:17:06.563Z,24.83
2023-06-24T21:19:33.071Z,24.83
2023-06-24T21:21:59.636Z,24.80
2023-06-24T21:24:26.131Z,24.75
2023-06-24T21:26:52.575Z,24.75
2023-06-24T21:29:19.053Z,24.72
2023-06-24T21:31:45.675Z,24.69
2023-06-24T21:34:12.311Z,24.66
2023-06-24T21:36:38.758Z,24.61
2023-06-24T21:39:05.202Z,24.56
2023-06-24T21:41:31.617Z,24.53
2023-06-24T21:43:58.096Z,24.51
2023-06-24T21:46:24.598Z,24.44
2023-06-24T21:48:51.094Z,24.41
2023-06-24T21:51:17.601Z,24.39
2023-06-24T21:53:44.137Z,24.36
2023-06-24T21:56:10.692Z,24.31
2023-06-24T21:58:37.175Z,24.25
2023-06-24T22:01:03.930Z,24.24
2023-06-24T22:03:30.527Z,24.23
2023-06-24T22:05:58.509Z,24.18
2023-06-24T22:08:24.989Z,24.14
2023-06-24T22:10:51.508Z,24.10
2023-06-24T22:13:17.980Z,24.09
2023-06-24T22:15:44.621Z,24.08
2023-06-24T22:18:11.120Z,24.06
2023-06-24T22:20:38.212Z,24.03
2023-06-24T22:23:04.937Z,23.99
2023-06-24T22:25:31.568Z,23.94
2023-06-24T22:28:00.202Z,23.86
2023-06-24T22:30:26.841Z,23.86
2023-06-24T22:32:53.382Z,23.83
2023-06-24T22:35:20.068Z,23.78
2023-06-24T22:37:47.423Z,23.63
2023-06-24T22:40:14.073Z,23.62
2023-06-24T22:42:40.609Z,23.59
2023-06-24T22:45:07.595Z,23.56
2023-06-24T22:47:34.657Z,23.57
2023-06-24T22:50:01.576Z,23.53
2023-06-24T22:52:28.067Z,23.49
2023-06-24T22:54:54.534Z,23.46
2023-06-24T22:57:21.030Z,23.42
2023-06-24T22:59:47.475Z,23.41
2023-06-24T23:02:14.165Z,23.36
2023-06-24T23:04:40.823Z,23.34
2023-06-24T23:07:07.737Z,23.30
2023-06-24T23:09:34.491Z,23.24
2023-06-24T23:12:02.913Z,23.18
2023-06-24T23:14:33.095Z,23.10
2023-06-24T23:16:59.849Z,23.09
2023-06-24T23:19:26.590Z,23.07
2023-06-24T23:21:53.186Z,23.05
2023-06-24T23:24:22.527Z,23.01
2023-06-24T23:26:54.568Z,22.99
2023-06-24T23:29:23.715Z,22.93
2023-06-24T23:31:50.550Z,22.96
2023-06-24T23:34:18.279Z,22.93
2023-06-24T23:36:45.614Z,22.90
2023-06-24T23:39:12.637Z,22.88
2023-06-24T23:41:39.273Z,22.85
2023-06-24T23:44:06.062Z,22.81
2023-06-24T23:46:35.368Z,22.75
2023-06-24T23:49:01.878Z,22.74
2023-06-24T23:51:28.348Z,22.74
2023-06-24T23:53:55.290Z,22.68
2023-06-24T23:56:21.755Z,22.63
2023-06-24T23:58:48.236Z,22.63
